Time;durP1;ratioP1;P1;durP2;ratioP2;P2;SDS_P1;SDS_P2;PMS_P1;PMS_P2;Temp;Humidity;BMP_temperature;BMP_pressure;BME280_temperature;BME280_humidity;BME280_pressure;Samples;Min_cycle;Max_cycle;Signal;HPM_P1;HPM_P2
2023/07/28 00:00:26;;;;;;;12.80;8.85;;;19.30;85.80;;;;;;5018886;28;20041;-68
2023/07/28 00:02:52;;;;;;;11.48;7.63;;;19.30;86.30;;;;;;5052104;28;20064;-68
2023/07/28 00:05:18;;;;;;;10.43;7.05;;;19.30;86.00;;;;;;5052170;28;20087;-68
2023/07/28 00:07:43;;;;;;;10.60;7.53;;;19.20;85.90;;;;;;5035652;28;20326;-68
2023/07/28 00:10:10;;;;;;;10.50;7.47;;;19.20;85.90;;;;;;5052449;28;20040;-69
2023/07/28 00:12:36;;;;;;;9.50;6.20;;;19.20;85.90;;;;;;5035183;28;20116;-68
2023/07/28 00:15:02;;;;;;;11.60;7.00;;;19.20;85.80;;;;;;5052031;28;20117;-68
2023/07/28 00:17:27;;;;;;;9.38;5.85;;;19.30;85.90;;;;;;5051747;28;20040;-68
2023/07/28 00:19:53;;;;;;;10.07;6.85;;;19.30;85.90;;;;;;5052158;28;20037;-68
2023/07/28 00:22:19;;;;;;;14.25;7.70;;;19.20;85.90;;;;;;5035494;28;20542;-68
2023/07/28 00:24:44;;;;;;;10.55;7.03;;;19.30;86.00;;;;;;5034979;28;20037;-69
2023/07/28 00:27:12;;;;;;;11.35;6.80;;;19.30;86.10;;;;;;5034932;28;20049;-69
2023/07/28 00:29:38;;;;;;;9.68;6.70;;;19.30;86.10;;;;;;5035056;28;20033;-69
2023/07/28 00:32:04;;;;;;;11.32;7.53;;;19.30;86.20;;;;;;5051973;28;20368;-69
2023/07/28 00:34:30;;;;;;;11.75;8.60;;;19.20;86.10;;;;;;5035307;28;20037;-68
2023/07/28 00:36:55;;;;;;;12.88;8.25;;;19.20;86.20;;;;;;5034576;28;20090;-69
2023/07/28 00:39:21;;;;;;;11.90;7.93;;;19.20;86.20;;;;;;5051400;28;20037;-68
2023/07/28 00:41:47;;;;;;;10.20;8.23;;;19.20;86.20;;;;;;5051496;28;20056;-69
2023/07/28 00:44:14;;;;;;;10.68;8.77;;;19.20;86.20;;;;;;5034728;28;20083;-68
2023/07/28 00:46:40;;;;;;;17.00;9.00;;;19.20;86.20;;;;;;5049114;28;20041;-68
2023/07/28 00:49:06;;;;;;;12.95;7.90;;;19.20;86.20;;;;;;5034290;28;20127;-69
2023/07/28 00:51:32;;;;;;;16.15;9.05;;;19.20;86.10;;;;;;5051783;28;20116;-69
2023/07/28 00:53:59;;;;;;;13.85;9.13;;;19.20;86.20;;;;;;5050746;28;20130;-68
2023/07/28 00:56:25;;;;;;;15.30;9.63;;;19.20;86.20;;;;;;5048897;28;20037;-68
2023/07/28 00:58:51;;;;;;;16.17;10.15;;;19.20;86.20;;;;;;5050651;28;20065;-69
2023/07/28 01:01:17;;;;;;;14.07;8.93;;;19.20;86.30;;;;;;5051083;28;20071;-68
2023/07/28 01:03:43;;;;;;;16.85;10.05;;;19.20;86.30;;;;;;5034653;28;20134;-68
2023/07/28 01:06:31;;;;;;;13.13;8.90;;;19.20;86.40;;;;;;5050699;28;20048;-69
2023/07/28 01:09:04;;;;;;;13.98;10.07;;;19.20;86.30;;;;;;5050572;28;20044;-68
2023/07/28 01:11:30;;;;;;;17.98;11.70;;;19.20;86.30;;;;;;5048333;28;20543;-69
2023/07/28 01:13:56;;;;;;;17.05;11.95;;;19.20;86.30;;;;;;5050921;28;20065;-68
2023/07/28 01:16:22;;;;;;;17.95;10.73;;;19.20;86.40;;;;;;5033881;28;20128;-68
2023/07/28 01:18:48;;;;;;;13.02;9.48;;;19.20;86.50;;;;;;5049943;28;20064;-68
2023/07/28 01:21:21;;;;;;;20.30;12.20;;;19.20;86.90;;;;;;5051541;28;20036;-69
2023/07/28 01:23:55;;;;;;;14.13;9.63;;;19.20;86.50;;;;;;5050540;28;20979;-68
2023/07/28 01:26:30;;;;;;;15.52;10.63;;;19.20;86.50;;;;;;5050673;28;20503;-69
2023/07/28 01:28:56;;;;;;;19.33;11.13;;;19.20;86.50;;;;;;5050090;28;20049;-69
2023/07/28 01:31:22;;;;;;;16.70;9.68;;;19.20;86.50;;;;;;5050490;28;20068;-69
2023/07/28 01:33:47;;;;;;;13.43;8.88;;;19.20;86.50;;;;;;5033964;28;20222;-68
2023/07/28 01:36:13;;;;;;;13.20;9.02;;;19.20;86.50;;;;;;5050287;28;20037;-68
2023/07/28 01:38:39;;;;;;;14.27;9.20;;;19.20;86.50;;;;;;5049971;28;20151;-69
2023/07/28 01:41:05;;;;;;;13.05;8.15;;;19.20;86.50;;;;;;5050150;28;20116;-68
2023/07/28 01:43:30;;;;;;;13.45;7.95;;;19.20;86.40;;;;;;5033828;28;20032;-69
2023/07/28 01:45:56;;;;;;;12.43;8.80;;;19.20;86.40;;;;;;5050079;28;20078;-69
2023/07/28 01:48:21;;;;;;;14.52;8.32;;;19.20;86.40;;;;;;5049688;28;20720;-68
2023/07/28 01:50:47;;;;;;;15.52;8.82;;;19.20;86.30;;;;;;5017154;28;20036;-68
2023/07/28 01:53:13;;;;;;;18.15;9.25;;;19.20;86.20;;;;;;5049734;28;20484;-68
2023/07/28 01:55:38;;;;;;;14.40;9.40;;;19.20;86.30;;;;;;5050107;28;20041;-69
2023/07/28 01:58:04;;;;;;;12.93;8.68;;;19.20;86.40;;;;;;5049892;28;20040;-69
2023/07/28 02:00:30;;;;;;;17.40;9.60;;;19.20;86.40;;;;;;5048587;28;20029;-68
2023/07/28 02:02:57;;;;;;;14.57;8.50;;;19.20;86.40;;;;;;5049694;28;20392;-69
2023/07/28 02:05:23;;;;;;;13.75;8.85;;;19.20;86.50;;;;;;5049735;28;20471;-69
2023/07/28 02:07:49;;;;;;;12.38;9.32;;;19.20;86.50;;;;;;5049566;28;20129;-69
2023/07/28 02:10:15;;;;;;;10.20;7.45;;;19.20;86.50;;;;;;5049504;28;20032;-69
2023/07/28 02:12:41;;;;;;;14.18;8.50;;;19.20;86.90;;;;;;5049346;28;20433;-68
2023/07/28 02:15:07;;;;;;;11.73;9.23;;;19.20;86.60;;;;;;5032846;28;20041;-69
2023/07/28 02:17:33;;;;;;;12.93;9.73;;;19.20;86.50;;;;;;5049572;28;20051;-68
2023/07/28 02:19:59;;;;;;;11.25;7.60;;;19.20;86.60;;;;;;5032207;28;20481;-69
2023/07/28 02:22:24;;;;;;;16.48;9.77;;;19.20;86.60;;;;;;5049584;28;20064;-68
2023/07/28 02:24:50;;;;;;;15.38;10.57;;;19.20;86.60;;;;;;5049754;28;20435;-69
2023/07/28 02:27:16;;;;;;;15.90;9.57;;;19.20;86.60;;;;;;5033041;28;20056;-69
2023/07/28 02:29:42;;;;;;;16.38;8.88;;;19.20;86.70;;;;;;5049292;28;20095;-69
2023/07/28 02:32:08;;;;;;;10.07;8.68;;;19.20;86.70;;;;;;5049600;28;20509;-69
2023/07/28 02:34:33;;;;;;;12.23;8.18;;;19.20;86.60;;;;;;5049018;28;20075;-69
2023/07/28 02:36:59;;;;;;;13.07;8.63;;;19.20;86.60;;;;;;5049749;28;20041;-69
2023/07/28 02:39:25;;;;;;;11.10;7.45;;;19.20;86.60;;;;;;5032028;28;20128;-69
2023/07/28 02:41:50;;;;;;;15.05;9.77;;;19.20;86.60;;;;;;5032863;28;20041;-69
2023/07/28 02:44:16;;;;;;;16.33;9.05;;;19.20;86.60;;;;;;5032907;28;20041;-69
2023/07/28 02:46:42;;;;;;;15.32;10.00;;;19.20;86.70;;;;;;5048864;28;20048;-69
2023/07/28 02:49:08;;;;;;;14.55;8.45;;;19.20;86.70;;;;;;5048841;28;20041;-69
2023/07/28 02:51:34;;;;;;;14.73;9.52;;;19.20;87.10;;;;;;5032545;28;20120;-68
2023/07/28 02:54:00;;;;;;;17.13;9.88;;;19.20;86.70;;;;;;5049232;28;20201;-69
2023/07/28 02:56:26;;;;;;;13.18;8.80;;;19.20;86.70;;;;;;5049271;28;20158;-68
2023/07/28 02:58:51;;;;;;;12.00;8.70;;;19.20;86.70;;;;;;5048232;28;20043;-69
2023/07/28 03:01:17;;;;;;;13.68;8.43;;;19.20;86.70;;;;;;5049069;28;20072;-69
2023/07/28 03:03:43;;;;;;;11.45;7.70;;;19.20;86.70;;;;;;5048890;28;20049;-69
2023/07/28 03:06:09;;;;;;;15.00;9.35;;;19.20;86.70;;;;;;5032339;28;20045;-69
2023/07/28 03:08:35;;;;;;;14.35;8.60;;;19.20;86.70;;;;;;5031583;28;20033;-69
2023/07/28 03:11:03;;;;;;;15.13;8.55;;;19.20;86.60;;;;;;5048375;28;20128;-69
2023/07/28 03:13:29;;;;;;;14.70;9.60;;;19.20;86.60;;;;;;5035079;28;20095;-69
2023/07/28 03:15:55;;;;;;;14.50;9.05;;;19.20;86.60;;;;;;5036069;28;20396;-68
2023/07/28 03:18:21;;;;;;;15.63;8.23;;;19.20;86.70;;;;;;5036500;28;20557;-69
2023/07/28 03:20:47;;;;;;;16.65;9.50;;;19.20;86.60;;;;;;5052100;28;20440;-69
2023/07/28 03:23:13;;;;;;;14.05;8.70;;;19.20;86.70;;;;;;5052968;28;20140;-69
2023/07/28 03:25:38;;;;;;;14.93;8.73;;;19.20;86.70;;;;;;5052875;28;20132;-69
2023/07/28 03:28:04;;;;;;;16.63;9.15;;;19.20;86.70;;;;;;5052660;28;20056;-69
2023/07/28 03:30:30;;;;;;;13.43;7.97;;;19.20;86.70;;;;;;5052493;28;20040;-68
2023/07/28 03:32:56;;;;;;;12.57;7.38;;;19.20;86.80;;;;;;5036506;28;20118;-69
2023/07/28 03:35:22;;;;;;;13.55;8.05;;;19.20;86.70;;;;;;5052535;28;20041;-69
2023/07/28 03:37:47;;;;;;;18.23;9.10;;;19.20;86.70;;;;;;5052871;28;20175;-69
2023/07/28 03:40:13;;;;;;;11.38;7.50;;;19.20;86.60;;;;;;5052540;28;20036;-69
2023/07/28 03:42:39;;;;;;;12.00;8.30;;;19.10;86.50;;;;;;5035792;28;20454;-69
2023/07/28 03:45:05;;;;;;;9.48;7.13;;;19.20;86.50;;;;;;5052378;28;20133;-69
2023/07/28 03:47:31;;;;;;;16.63;9.20;;;19.10;86.50;;;;;;5052790;28;20365;-69
2023/07/28 03:49:56;;;;;;;15.00;9.30;;;19.10;86.60;;;;;;5052364;28;20043;-69
2023/07/28 03:52:22;;;;;;;11.65;8.18;;;19.20;86.70;;;;;;5052145;28;20037;-69
2023/07/28 03:54:48;;;;;;;10.93;7.75;;;19.20;86.60;;;;;;5052145;28;20124;-69
2023/07/28 03:57:13;;;;;;;12.38;8.52;;;19.20;86.60;;;;;;5052988;28;20049;-69
2023/07/28 03:59:39;;;;;;;17.33;8.90;;;19.20;86.60;;;;;;5036020;28;20415;-69
2023/07/28 04:02:05;;;;;;;12.80;8.18;;;19.20;86.60;;;;;;5052959;28;20049;-68
2023/07/28 04:04:31;;;;;;;12.30;7.95;;;19.10;86.40;;;;;;5019637;28;20080;-68
2023/07/28 04:06:56;;;;;;;13.85;9.57;;;19.20;86.40;;;;;;5052606;28;20132;-68
2023/07/28 04:09:22;;;;;;;16.30;9.55;;;19.20;86.40;;;;;;5052085;28;20044;-68
2023/07/28 04:11:48;;;;;;;15.43;9.90;;;19.20;86.50;;;;;;5053192;28;20040;-68
2023/07/28 04:14:14;;;;;;;15.52;9.20;;;19.20;87.00;;;;;;5053251;28;20030;-68
2023/07/28 04:16:40;;;;;;;13.10;8.38;;;19.20;86.60;;;;;;5037145;28;20062;-68
2023/07/28 04:19:06;;;;;;;13.57;9.15;;;19.20;86.60;;;;;;5036325;28;20047;-68
2023/07/28 04:21:32;;;;;;;13.95;9.45;;;19.10;86.50;;;;;;5018851;28;20045;-69
2023/07/28 04:23:57;;;;;;;16.05;10.55;;;19.20;86.70;;;;;;5051696;28;20082;-69
2023/07/28 04:26:24;;;;;;;13.57;8.98;;;19.20;86.80;;;;;;5051205;28;20404;-69
2023/07/28 04:28:50;;;;;;;14.48;9.60;;;19.20;86.70;;;;;;5034596;28;20056;-69
2023/07/28 04:31:16;;;;;;;19.08;10.07;;;19.20;86.70;;;;;;5051208;28;20037;-68
2023/07/28 04:33:42;;;;;;;19.17;10.73;;;19.20;86.70;;;;;;5051563;28;20087;-69
2023/07/28 04:36:08;;;;;;;18.55;10.77;;;19.20;86.80;;;;;;5051509;28;20048;-69
2023/07/28 04:38:34;;;;;;;12.32;8.75;;;19.20;86.90;;;;;;5051138;28;20434;-69
2023/07/28 04:40:59;;;;;;;17.25;9.90;;;19.20;86.90;;;;;;5051304;28;20116;-69
2023/07/28 04:43:25;;;;;;;15.93;11.40;;;19.20;86.90;;;;;;5015747;28;20476;-69
2023/07/28 04:45:51;;;;;;;21.10;11.60;;;19.20;86.90;;;;;;5050941;28;20080;-69
2023/07/28 04:48:16;;;;;;;16.45;10.63;;;19.20;87.00;;;;;;5052214;28;20059;-69
2023/07/28 04:50:42;;;;;;;14.77;9.23;;;19.20;87.00;;;;;;5050448;28;20165;-69
2023/07/28 04:53:08;;;;;;;17.20;9.57;;;19.20;87.00;;;;;;5050855;28;20037;-69
2023/07/28 04:55:34;;;;;;;19.15;10.57;;;19.20;86.90;;;;;;5051293;28;20036;-69
2023/07/28 04:57:59;;;;;;;13.70;9.18;;;19.20;86.80;;;;;;5050560;28;20496;-69
2023/07/28 05:00:25;;;;;;;16.65;10.13;;;19.20;86.70;;;;;;5050630;28;20071;-69
2023/07/28 05:02:51;;;;;;;17.23;10.65;;;19.20;86.70;;;;;;5051021;28;20051;-69
2023/07/28 05:05:16;;;;;;;18.60;11.05;;;19.20;86.80;;;;;;5050786;28;20533;-69
2023/07/28 05:07:42;;;;;;;14.15;10.25;;;19.20;86.80;;;;;;5050786;28;20427;-69
2023/07/28 05:10:08;;;;;;;19.20;11.15;;;19.20;87.40;;;;;;5050650;28;20380;-69
2023/07/28 05:12:34;;;;;;;17.67;10.70;;;19.20;87.00;;;;;;5050513;28;20049;-69
2023/07/28 05:15:00;;;;;;;15.57;9.55;;;19.20;87.00;;;;;;5033951;28;20397;-69
2023/07/28 05:17:25;;;;;;;20.33;11.52;;;19.20;87.00;;;;;;5050379;28;20033;-69
2023/07/28 05:19:51;;;;;;;16.30;10.43;;;19.30;87.10;;;;;;5050393;28;20040;-69
2023/07/28 05:22:17;;;;;;;16.30;9.95;;;19.30;87.20;;;;;;5050665;28;20037;-69
2023/07/28 05:24:44;;;;;;;14.15;9.55;;;19.20;87.10;;;;;;5050719;28;20496;-70
2023/07/28 05:27:10;;;;;;;14.60;9.20;;;19.30;87.10;;;;;;5050605;28;20045;-70
2023/07/28 05:29:36;;;;;;;16.55;10.32;;;19.30;87.20;;;;;;5050607;28;20489;-70
2023/07/28 05:32:02;;;;;;;16.77;11.32;;;19.30;87.20;;;;;;5033930;28;20037;-70
2023/07/28 05:34:28;;;;;;;17.23;9.85;;;19.30;87.20;;;;;;5050976;28;20064;-70
2023/07/28 05:36:53;;;;;;;13.07;9.45;;;19.30;87.20;;;;;;5049628;28;20033;-70
2023/07/28 05:39:19;;;;;;;16.75;10.23;;;19.30;87.20;;;;;;5050022;28;20083;-70
2023/07/28 05:41:45;;;;;;;15.85;10.55;;;19.30;87.10;;;;;;5050004;28;20060;-70
2023/07/28 05:44:11;;;;;;;13.38;9.52;;;19.30;87.10;;;;;;5034028;28;20063;-70
2023/07/28 05:46:36;;;;;;;13.85;8.43;;;19.30;87.10;;;;;;5049780;28;20056;-70
2023/07/28 05:49:02;;;;;;;16.23;10.05;;;19.30;87.00;;;;;;5050376;28;20041;-70
2023/07/28 05:51:28;;;;;;;15.60;9.05;;;19.40;87.00;;;;;;5016552;28;20107;-70
2023/07/28 05:53:54;;;;;;;18.60;10.43;;;19.40;87.00;;;;;;5049970;28;20051;-70
2023/07/28 05:56:20;;;;;;;15.18;10.10;;;19.40;87.10;;;;;;5033919;28;20048;-70
2023/07/28 05:58:46;;;;;;;12.98;8.45;;;19.40;87.10;;;;;;5033252;28;20357;-70
2023/07/28 06:01:12;;;;;;;15.05;9.57;;;19.40;87.00;;;;;;5033467;28;20554;-70
2023/07/28 06:03:38;;;;;;;16.98;10.05;;;19.40;87.00;;;;;;5033055;28;20080;-69
2023/07/28 06:06:04;;;;;;;12.25;9.15;;;19.40;87.00;;;;;;5033398;28;20069;-70
2023/07/28 06:08:29;;;;;;;11.85;9.18;;;19.50;87.00;;;;;;5050013;28;20029;-69
2023/07/28 06:10:55;;;;;;;13.68;9.07;;;19.50;87.00;;;;;;5049679;28;20047;-70
2023/07/28 06:13:21;;;;;;;16.17;10.60;;;19.50;87.00;;;;;;5046722;28;20111;-70
2023/07/28 06:15:46;;;;;;;11.82;9.30;;;19.50;87.10;;;;;;5049337;28;20120;-70
2023/07/28 06:18:12;;;;;;;10.95;8.60;;;19.60;87.10;;;;;;5049220;28;20414;-69
2023/07/28 06:20:41;;;;;;;16.45;9.93;;;19.60;87.00;;;;;;5033032;28;20071;-70
2023/07/28 06:23:06;;;;;;;12.15;9.27;;;19.60;86.90;;;;;;5049408;28;20041;-69
2023/07/28 06:25:32;;;;;;;11.15;8.43;;;19.70;86.80;;;;;;5049326;28;20037;-70
2023/07/28 06:27:58;;;;;;;13.38;8.15;;;19.70;86.70;;;;;;5049321;28;20153;-69
2023/07/28 06:30:23;;;;;;;12.20;8.32;;;19.80;86.50;;;;;;4999884;28;20041;-69
2023/07/28 06:32:49;;;;;;;13.50;8.82;;;19.80;86.30;;;;;;5033178;28;20345;-69
2023/07/28 06:35:15;;;;;;;11.15;9.32;;;19.80;86.10;;;;;;5029116;28;20036;-70
2023/07/28 06:37:41;;;;;;;9.93;7.72;;;19.90;86.00;;;;;;5048861;28;20032;-70
2023/07/28 06:40:09;;;;;;;12.73;8.90;;;19.90;85.90;;;;;;5049081;28;20124;-69
2023/07/28 06:42:36;;;;;;;13.68;8.43;;;19.90;85.80;;;;;;5046994;28;20055;-69
2023/07/28 06:45:03;;;;;;;11.38;7.97;;;20.00;85.90;;;;;;5030164;28;20048;-69
2023/07/28 06:47:29;;;;;;;12.82;8.75;;;20.00;85.70;;;;;;5048872;28;20047;-69
2023/07/28 06:49:55;;;;;;;10.07;8.57;;;20.00;85.50;;;;;;5049083;28;20036;-69
2023/07/28 06:52:20;;;;;;;11.75;7.97;;;20.10;85.40;;;;;;5049533;28;20051;-69
2023/07/28 06:54:48;;;;;;;9.07;7.13;;;20.10;85.30;;;;;;5047637;28;20547;-70
2023/07/28 06:57:15;;;;;;;10.10;8.43;;;20.10;85.10;;;;;;5033605;28;20488;-70
2023/07/28 06:59:41;;;;;;;11.73;7.85;;;20.10;85.00;;;;;;5050119;28;20041;-70
2023/07/28 07:02:07;;;;;;;11.38;7.93;;;20.20;85.10;;;;;;5049591;28;20041;-69
2023/07/28 07:04:32;;;;;;;11.95;9.18;;;20.20;85.20;;;;;;5015619;28;20484;-70
2023/07/28 07:06:58;;;;;;;9.88;7.18;;;20.20;85.10;;;;;;5046007;28;20097;-70
2023/07/28 07:09:24;;;;;;;12.60;7.55;;;20.30;85.00;;;;;;5047613;28;20661;-69
2023/07/28 07:11:50;;;;;;;10.52;7.50;;;20.30;84.70;;;;;;5031620;28;20061;-69
2023/07/28 07:14:16;;;;;;;12.70;8.25;;;20.30;84.60;;;;;;5014626;28;20048;-69
2023/07/28 07:16:42;;;;;;;10.93;7.88;;;20.30;84.60;;;;;;5033262;28;20045;-69
2023/07/28 07:19:08;;;;;;;11.48;8.48;;;20.40;84.70;;;;;;5032661;28;20072;-69
2023/07/28 07:21:35;;;;;;;10.95;7.78;;;20.40;84.70;;;;;;5049885;28;20174;-69
2023/07/28 07:24:02;;;;;;;15.18;8.60;;;20.40;84.60;;;;;;5050258;28;20033;-70
2023/07/28 07:26:28;;;;;;;15.18;9.05;;;20.40;84.50;;;;;;5049473;28;20142;-69
2023/07/28 07:28:53;;;;;;;12.38;8.00;;;20.50;84.50;;;;;;5033493;28;20041;-69
2023/07/28 07:31:19;;;;;;;9.00;7.28;;;20.50;84.70;;;;;;5049547;28;20150;-69
2023/07/28 07:33:46;;;;;;;9.48;7.47;;;20.50;84.70;;;;;;5050302;28;20125;-69
2023/07/28 07:36:13;;;;;;;9.65;7.28;;;20.60;84.60;;;;;;5049576;28;20037;-69
2023/07/28 07:38:40;;;;;;;10.43;7.22;;;20.60;84.30;;;;;;5049871;28;20088;-69
2023/07/28 07:41:07;;;;;;;9.98;7.75;;;20.70;84.20;;;;;;5049910;28;20048;-69
2023/07/28 07:43:33;;;;;;;10.07;6.88;;;20.70;84.00;;;;;;5033795;28;20048;-69
2023/07/28 07:46:02;;;;;;;9.57;7.53;;;20.70;83.70;;;;;;5044388;28;20412;-70
2023/07/28 07:48:27;;;;;;;9.43;6.97;;;20.80;83.60;;;;;;5025248;28;20037;-69
2023/07/28 07:50:53;;;;;;;10.48;6.90;;;20.80;83.70;;;;;;5032958;28;20040;-69
2023/07/28 07:53:19;;;;;;;10.23;6.60;;;20.90;84.60;;;;;;5048841;28;20082;-69
2023/07/28 07:55:44;;;;;;;10.85;6.05;;;21.00;85.20;;;;;;5049246;28;20098;-70
2023/07/28 07:58:10;;;;;;;10.10;6.03;;;21.20;84.70;;;;;;5046136;28;20049;-70
2023/07/28 08:00:38;;;;;;;6.90;5.72;;;21.40;83.80;;;;;;5052919;28;20189;-69
2023/07/28 08:03:04;;;;;;;8.80;5.95;;;21.50;82.70;;;;;;5054391;28;20336;-72
2023/07/28 08:05:31;;;;;;;8.52;5.55;;;21.60;82.00;;;;;;5057195;28;20044;-73
2023/07/28 08:07:56;;;;;;;8.40;5.30;;;21.70;81.60;;;;;;5053476;28;20041;-75
2023/07/28 08:10:22;;;;;;;7.82;5.32;;;21.80;82.00;;;;;;5036932;28;20396;-76
2023/07/28 08:12:49;;;;;;;8.93;5.45;;;21.80;81.20;;;;;;5052955;28;20223;-75
2023/07/28 08:15:14;;;;;;;5.80;5.10;;;21.90;80.70;;;;;;5053605;28;20455;-76
2023/07/28 08:17:40;;;;;;;5.78;4.47;;;21.90;80.30;;;;;;5053610;28;20037;-76
2023/07/28 08:20:07;;;;;;;8.93;5.28;;;22.00;80.00;;;;;;5053595;28;20480;-75
2023/07/28 08:22:33;;;;;;;8.55;4.63;;;22.00;80.00;;;;;;5053552;28;20116;-76
2023/07/28 08:24:59;;;;;;;6.80;4.90;;;22.10;80.30;;;;;;5038838;28;20450;-76
2023/07/28 08:27:25;;;;;;;6.28;4.68;;;22.20;80.50;;;;;;5057230;28;20092;-76
2023/07/28 08:29:50;;;;;;;8.77;4.63;;;22.40;80.40;;;;;;5040971;28;20041;-76
2023/07/28 08:32:17;;;;;;;5.95;4.07;;;22.60;80.00;;;;;;5039679;28;20247;-76
2023/07/28 08:34:43;;;;;;;7.32;4.20;;;22.80;79.20;;;;;;5038542;28;20436;-77
2023/07/28 08:37:08;;;;;;;8.18;4.60;;;23.00;78.30;;;;;;5055366;28;20044;-78
2023/07/28 08:39:34;;;;;;;5.82;4.03;;;23.20;77.40;;;;;;5055495;28;20067;-75
2023/07/28 08:42:01;;;;;;;6.03;3.95;;;23.30;76.50;;;;;;5037914;28;20123;-76
2023/07/28 08:44:31;;;;;;;5.95;3.95;;;23.40;75.50;;;;;;5054461;28;20105;-76
2023/07/28 08:46:56;;;;;;;5.43;3.55;;;23.50;74.70;;;;;;5036794;28;20044;-76
2023/07/28 08:49:22;;;;;;;5.28;3.22;;;23.50;74.60;;;;;;5050540;28;20037;-72
2023/07/28 08:51:52;;;;;;;7.63;3.78;;;23.60;74.50;;;;;;5034668;28;20045;-73
2023/07/28 08:54:20;;;;;;;5.47;3.90;;;23.70;73.90;;;;;;5049939;28;20378;-74
2023/07/28 08:56:46;;;;;;;5.95;3.53;;;23.70;73.70;;;;;;5053139;28;20080;-74
2023/07/28 08:59:12;;;;;;;5.25;4.38;;;23.80;73.60;;;;;;5019888;28;20130;-74
2023/07/28 09:01:41;;;;;;;7.38;4.05;;;23.80;73.20;;;;;;5019136;28;20102;-74
2023/07/28 09:04:11;;;;;;;5.88;4.40;;;23.90;73.20;;;;;;5036297;28;20484;-74
2023/07/28 09:06:37;;;;;;;5.78;4.03;;;23.90;72.70;;;;;;5052016;28;20033;-73
2023/07/28 09:09:07;;;;;;;7.38;3.65;;;24.00;72.70;;;;;;5035304;28;20100;-71
2023/07/28 09:11:32;;;;;;;5.43;4.20;;;24.00;72.40;;;;;;5052442;28;20048;-72
2023/07/28 09:14:00;;;;;;;7.82;4.30;;;24.00;71.90;;;;;;5019863;28;20033;-71
2023/07/28 09:16:29;;;;;;;6.38;4.40;;;24.00;71.80;;;;;;5052436;28;20446;-70
2023/07/28 09:19:10;;;;;;;5.80;4.00;;;24.00;71.60;;;;;;5052583;28;20053;-71
2023/07/28 09:21:37;;;;;;;6.82;4.18;;;24.10;70.80;;;;;;5035605;28;20045;-69
2023/07/28 09:24:08;;;;;;;7.45;4.43;;;24.00;70.60;;;;;;5052662;28;20040;-71
2023/07/28 09:26:38;;;;;;;7.55;4.38;;;24.10;71.40;;;;;;5052627;28;20045;-71
2023/07/28 09:29:23;;;;;;;7.70;4.30;;;24.10;71.50;;;;;;5052502;28;20120;-71
2023/07/28 09:31:49;;;;;;;5.90;3.83;;;24.10;71.30;;;;;;5052939;28;20087;-72
2023/07/28 09:34:26;;;;;;;5.30;3.85;;;24.10;71.10;;;;;;5052523;28;20055;-71
2023/07/28 09:36:56;;;;;;;7.00;3.50;;;24.20;70.70;;;;;;5052015;28;20045;-71
2023/07/28 09:39:22;;;;;;;5.78;3.80;;;24.20;70.50;;;;;;5035515;28;20052;-71
2023/07/28 09:41:48;;;;;;;6.35;3.78;;;24.20;70.50;;;;;;5052264;28;20043;-71
2023/07/28 09:44:15;;;;;;;5.70;4.07;;;24.30;70.40;;;;;;5051699;28;20062;-71
2023/07/28 09:46:51;;;;;;;4.72;3.63;;;24.40;70.20;;;;;;5051640;28;20056;-71
2023/07/28 09:49:27;;;;;;;5.53;4.80;;;24.40;70.30;;;;;;5051510;28;20044;-74
2023/07/28 09:51:55;;;;;;;4.68;3.95;;;24.50;70.00;;;;;;5048711;28;20044;-74
2023/07/28 09:54:27;;;;;;;6.07;4.88;;;24.50;70.10;;;;;;5042760;28;20041;-75
2023/07/28 09:56:58;;;;;;;6.53;4.32;;;24.60;70.00;;;;;;5024911;28;20116;-74
2023/07/28 09:59:31;;;;;;;6.72;4.22;;;24.70;69.70;;;;;;5026312;28;20135;-74
2023/07/28 10:01:58;;;;;;;5.82;4.75;;;24.80;69.00;;;;;;5047200;28;20040;-75
2023/07/28 10:04:24;;;;;;;7.10;5.10;;;24.80;68.60;;;;;;5050755;28;20101;-74
2023/07/28 10:06:56;;;;;;;6.43;4.70;;;24.90;68.70;;;;;;5025807;28;20463;-73
2023/07/28 10:09:28;;;;;;;7.90;5.47;;;24.90;68.80;;;;;;5043613;28;20102;-74
2023/07/28 10:11:56;;;;;;;6.47;5.22;;;25.10;69.00;;;;;;5027670;28;20064;-73
2023/07/28 10:14:40;;;;;;;7.75;5.10;;;25.10;67.80;;;;;;5047906;28;20045;-72
2023/07/28 10:17:14;;;;;;;8.80;5.30;;;25.20;67.20;;;;;;5050440;28;20480;-73
2023/07/28 10:19:40;;;;;;;7.88;5.50;;;25.30;67.50;;;;;;5034297;28;20087;-74
2023/07/28 10:22:11;;;;;;;8.68;5.90;;;25.40;67.50;;;;;;5030359;28;20037;-73
2023/07/28 10:25:00;;;;;;;8.95;5.68;;;25.40;66.90;;;;;;5049539;28;20036;-73
2023/07/28 10:27:36;;;;;;;6.30;5.15;;;25.60;67.30;;;;;;5029355;28;20097;-73
2023/07/28 10:30:11;;;;;;;6.00;4.25;;;25.70;66.70;;;;;;5028748;28;20120;-74
2023/07/28 10:32:44;;;;;;;8.85;6.32;;;25.80;65.80;;;;;;5044598;28;20159;-74
2023/07/28 10:35:13;;;;;;;8.55;5.82;;;25.80;66.10;;;;;;5044517;28;20489;-74
2023/07/28 10:37:39;;;;;;;8.90;6.80;;;25.80;66.90;;;;;;5045296;28;20082;-74
2023/07/28 10:40:28;;;;;;;6.82;6.13;;;25.90;66.60;;;;;;5039224;28;20034;-74
2023/07/28 10:42:54;;;;;;;10.38;8.60;;;26.00;66.80;;;;;;5047524;28;20059;-74
2023/07/28 10:45:24;;;;;;;9.98;8.63;;;26.00;66.10;;;;;;5050701;28;20037;-74
2023/07/28 10:47:52;;;;;;;11.55;7.90;;;26.10;65.50;;;;;;5050296;28;20041;-74
2023/07/28 10:50:20;;;;;;;14.80;9.18;;;26.10;66.50;;;;;;5050430;28;20037;-73
2023/07/28 10:52:46;;;;;;;8.45;7.60;;;26.20;67.10;;;;;;5050323;28;20116;-73
2023/07/28 10:55:17;;;;;;;9.48;7.70;;;26.20;67.60;;;;;;5033989;28;20059;-73
2023/07/28 10:57:44;;;;;;;8.13;7.00;;;26.20;67.60;;;;;;5049976;28;20083;-74
2023/07/28 11:00:12;;;;;;;11.10;8.73;;;26.20;67.50;;;;;;5033473;28;20044;-74
2023/07/28 11:02:45;;;;;;;10.23;7.97;;;26.20;66.90;;;;;;5050552;28;20092;-73
2023/07/28 11:05:20;;;;;;;11.02;8.98;;;26.10;66.80;;;;;;5049991;28;20488;-73
2023/07/28 11:07:46;;;;;;;9.38;8.05;;;26.10;66.80;;;;;;5050026;28;20369;-72
2023/07/28 11:10:13;;;;;;;9.13;8.02;;;26.00;67.50;;;;;;5049745;28;20037;-73
2023/07/28 11:12:49;;;;;;;9.27;7.78;;;26.00;68.90;;;;;;5049920;28;20473;-73
2023/07/28 11:15:16;;;;;;;12.10;7.90;;;26.00;68.70;;;;;;5050026;28;20033;-73
2023/07/28 11:17:46;;;;;;;10.57;7.80;;;26.00;68.80;;;;;;5049731;28;20120;-73
2023/07/28 11:20:18;;;;;;;8.98;6.97;;;26.00;69.10;;;;;;5033401;28;20127;-73
2023/07/28 11:22:46;;;;;;;10.23;6.93;;;26.00;68.00;;;;;;5050122;28;20495;-73
2023/07/28 11:25:12;;;;;;;7.32;6.18;;;25.90;67.10;;;;;;5048837;28;20723;-73
2023/07/28 11:27:39;;;;;;;9.20;6.43;;;25.90;66.60;;;;;;5048844;28;20403;-72
2023/07/28 11:30:09;;;;;;;8.07;6.70;;;25.80;66.70;;;;;;5049657;28;20083;-75
2023/07/28 11:32:36;;;;;;;8.05;6.35;;;25.70;67.10;;;;;;5049438;28;20037;-75
2023/07/28 11:35:10;;;;;;;9.82;7.35;;;25.70;67.50;;;;;;5035936;28;20041;-75
2023/07/28 11:37:37;;;;;;;8.05;6.60;;;25.60;68.50;;;;;;5037134;28;20234;-75
2023/07/28 11:40:10;;;;;;;8.80;6.72;;;25.60;69.50;;;;;;5053282;28;20101;-75
2023/07/28 11:42:43;;;;;;;8.52;7.30;;;25.60;69.90;;;;;;5036764;28;20049;-75
2023/07/28 11:45:10;;;;;;;6.20;5.60;;;25.60;70.20;;;;;;5054032;28;20448;-76
2023/07/28 11:47:37;;;;;;;6.93;5.90;;;25.70;70.70;;;;;;5053291;28;20116;-76
2023/07/28 11:50:03;;;;;;;8.20;6.25;;;25.80;71.50;;;;;;5020733;28;20055;-75
2023/07/28 11:52:33;;;;;;;5.68;5.07;;;25.80;70.40;;;;;;5053334;28;20086;-75
2023/07/28 11:55:00;;;;;;;7.43;6.63;;;25.90;68.70;;;;;;5052953;28;20064;-75
2023/07/28 11:57:32;;;;;;;8.23;6.93;;;25.90;68.20;;;;;;5020685;28;20076;-75
2023/07/28 12:00:04;;;;;;;10.25;8.52;;;26.00;68.30;;;;;;5053278;28;20055;-75
2023/07/28 12:02:33;;;;;;;11.30;10.30;;;26.00;68.10;;;;;;5036674;28;20094;-75
2023/07/28 12:04:59;;;;;;;10.93;9.82;;;26.10;67.10;;;;;;5036962;28;20040;-75
2023/07/28 12:07:30;;;;;;;8.30;7.05;;;26.10;65.50;;;;;;5053811;28;20349;-75
2023/07/28 12:09:59;;;;;;;8.20;7.40;;;26.20;65.50;;;;;;5037423;28;20136;-76
2023/07/28 12:12:27;;;;;;;8.65;7.85;;;26.10;65.60;;;;;;5053282;28;20500;-75
2023/07/28 12:14:53;;;;;;;8.57;7.78;;;26.20;65.50;;;;;;5053445;28;20045;-75
2023/07/28 12:17:20;;;;;;;7.70;6.95;;;26.20;64.50;;;;;;5036893;28;20047;-76
2023/07/28 12:19:56;;;;;;;8.18;6.47;;;26.20;64.90;;;;;;5037413;28;20040;-76
2023/07/28 12:22:21;;;;;;;7.18;6.47;;;26.20;64.70;;;;;;5035077;28;20064;-77
2023/07/28 12:24:47;;;;;;;7.72;6.82;;;26.20;64.80;;;;;;5056707;28;20076;-76
2023/07/28 12:27:13;;;;;;;9.35;7.07;;;26.20;65.10;;;;;;5039198;28;20049;-76
2023/07/28 12:29:39;;;;;;;8.70;6.57;;;26.20;65.40;;;;;;5060082;28;20076;-76
2023/07/28 12:32:05;;;;;;;7.97;7.05;;;26.20;65.10;;;;;;5054487;28;20033;-76
2023/07/28 12:34:31;;;;;;;7.32;6.53;;;26.30;64.20;;;;;;5042335;28;20048;-75
2023/07/28 12:36:57;;;;;;;11.93;8.15;;;26.20;63.90;;;;;;5048863;28;20041;-76